Pacaembu, Brazil
Current Conditions -  °F | °C
As of 2:00 PM on Thursday 18 Dec 2014 (Local Time) from SBDN Reporting Station
Scattered Clouds Scattered Clouds  
Wind Chill: 90°   Ceiling: Unl
Heat Index: 90°   Visibility: 6mi
Dew Point: 63°   Wind: 8mph
Humidity: 40%   Direction: 250°WSW
Pressure: 29.85"   Gusts: NA
Location:  21.56°S, 51.26°W
Report Text: SBDN 181600Z 25007KT 190V310 9999 FEW033 SCT060 32/17 Q1011
Loading
Personal Weather Stations






























Interactive Weather Map New forecast layout! Learn more

10-Day Weather Forecast

Advertisements
Track Severe Weather on mobile